All
Eastern Creek Airport YECK Weather
There is no TAF data available at YECK. Showing TAF data for YSBK (11 mi SE).
BWU Terminal Area Forecast (no data for YECK)
| Here is the undecoded forecast: 2026/05/07 16:58 YSBK 071658Z 0718/0812 29007KT CAVOK FM080000 25018G28KT CAVOK FM080700 25010KT CAVOK RMK FM071800 MOD TURB BLW 5000FT TL080300 T 09 09 16 20 Q 1018 1018 1018 1016 |
There is no METAR data available at YECK. Showing METAR data for YSBK (11 mi SE).
Recent BWU METAR history (no data for YECK)
| Date | Time (AEST) | Flight Rules | Wind Dir. | Speed | Type | Height AGL (ft) | Visibility | Temp (°C) | Temp (°F) | Dew Point (°C) | Dew Point (°F) | Rel. Humid. | Pressure | Density Altitude | Remarks |
|---|---|---|---|---|---|---|---|---|---|---|---|---|---|---|---|
| 08-May | 04:00AM | VFR | 270° | 6 kt | 10000 meters | 10° | 50° | 2° | 35° | 57% | 1018 mb | -713 ft | |||
| 08-May | 03:00AM | VFR | 270° | 7 kt | 10000 meters | 10° | 50° | 2° | 35° | 57% | 1018 mb | -713 ft | |||
| 08-May | 02:00AM | VFR | 270° | 8 kt | 10000 meters | 10° | 50° | 2° | 35° | 57% | 1019 mb | -742 ft | |||
| 08-May | 01:00AM | VFR | 270° | 8 kt | 10000 meters | 10° | 50° | 1° | 33° | 53% | 1019 mb | -742 ft | |||
| 08-May | 12:00AM | VFR | 270° | 7 kt | 10000 meters | 10° | 50° | 0° | 32° | 50% | 1019 mb | -742 ft | |||
| 07-May | 11:00PM | VFR | 270° | 8 kt | 10000 meters | 10° | 50° | 0° | 32° | 50% | 1019 mb | -742 ft | |||
| 07-May | 10:00PM | VFR | 270° | 9 kt | 10000 meters | 11° | 51° | 0° | 32° | 47% | 1019 mb | -622 ft | |||
| 07-May | 09:00PM | VFR | 280° | 11 kt | 10000 meters | 11° | 51° | 0° | 32° | 47% | 1019 mb | -622 ft | |||
| 07-May | 08:00PM | VFR | 260° | 10 kt | 10000 meters | 12° | 53° | -1° | 30° | 40% | 1019 mb | -502 ft | |||
| 07-May | 07:00PM | VFR | 260° | 9 kt | 10000 meters | 12° | 53° | -1° | 30° | 40% | 1018 mb | -473 ft | |||
| 07-May | 06:00PM | VFR | 260° | 9 kt | 10000 meters | 13° | 55° | -1° | 30° | 38% | 1017 mb | -323 ft | |||
| 07-May | 05:00PM | VFR | 260° | 14 kt | 10000 meters | 14° | 57° | -2° | 28° | 33% | 1016 mb | -173 ft | |||
| 07-May | 04:07PM | VFR | 260° | 17 kt | 10000 meters | 15° | 59° | -2° | 28° | 31% | 1016 mb | -53 ft | Wind gusting to 27 KT | ||
| 07-May | 03:05PM | VFR | 250° | 15 kt | 10000 meters | 16° | 60° | -2° | 28° | 29% | 1015 mb | 96 ft | Wind gusting to 25 KT | ||
| 07-May | 02:00PM | VFR | 270° | 15 kt | 10000 meters | 17° | 62° | -3° | 26° | 25% | 1014 mb | 246 ft | |||
| 07-May | 01:00PM | VFR | 270° | 15 kt | 10000 meters | 17° | 62° | -4° | 24° | 23% | 1014 mb | 246 ft | |||
| 07-May | 12:00PM | VFR | 270° | 13 kt | 10000 meters | 17° | 62° | -2° | 28° | 27% | 1014 mb | 246 ft | Wind gusting to 23 KT | ||
| 07-May | 11:00AM | VFR | 250° | 16 kt | Few Broken Broken |
3,800 4,900 6,400 |
10000 meters | 16° | 60° | 2° | 35° | 39% | 1014 mb | 126 ft | Wind gusting to 26 KT |
| 07-May | 10:00AM | VFR | 300° | 7 kt | Few |
7,200 |
10000 meters | 18° | 64° | 7° | 44° | 49% | 1014 mb | 366 ft | |
| 07-May | 09:00AM | VFR | 330° | 5 kt | 10000 meters | 16° | 60° | 8° | 46° | 59% | 1014 mb | 126 ft | |||
| 07-May | 08:00AM | VFR | 350° | 5 kt | 10000 meters | 14° | 57° | 7° | 44° | 63% | 1014 mb | -114 ft | |||
| 07-May | 07:00AM | VFR | Calm | 10000 meters | 9° | 48° | 7° | 44° | 87% | 1013 mb | -685 ft | ||||
| 07-May | 06:00AM | VFR | 350° | 5 kt | 10000 meters | 11° | 51° | 6° | 42° | 71% | 1013 mb | -445 ft | |||
| 07-May | 05:00AM | VFR | 250° | 6 kt | 10000 meters | 12° | 53° | 6° | 42° | 67% | 1013 mb | -325 ft |
Login
| Your browser is unsupported. upgrade your browser |
